Time;durP1;ratioP1;P1;durP2;ratioP2;P2;SDS_P1;SDS_P2;PMS_P1;PMS_P2;Temp;Humidity;BMP_temperature;BMP_pressure;BME280_temperature;BME280_humidity;BME280_pressure;Samples;Min_cycle;Max_cycle;Signal;HPM_P1;HPM_P2
2022/01/12 00:01:43;;;;;;;10.60;5.20;;;0.60;2201.60;;;;;;5016606;28;20030;-62
2022/01/12 00:04:10;;;;;;;8.73;5.33;;;0.70;2201.60;;;;;;5034602;28;20030;-63
2022/01/12 00:06:36;;;;;;;11.87;5.23;;;0.70;2201.60;;;;;;5034075;28;20060;-67
2022/01/12 00:09:06;;;;;;;10.10;5.43;;;0.70;2201.60;;;;;;5033722;28;20021;-67
2022/01/12 00:11:36;;;;;;;9.53;5.33;;;0.70;2201.60;;;;;;5033191;28;20029;-67
2022/01/12 00:14:04;;;;;;;11.30;4.87;;;0.70;2201.60;;;;;;5033939;28;20042;-62
2022/01/12 00:16:30;;;;;;;8.20;4.93;;;0.70;2201.60;;;;;;5034629;28;20025;-64
2022/01/12 00:18:56;;;;;;;12.33;6.00;;;0.70;2201.60;;;;;;5033860;28;20026;-67
2022/01/12 00:21:22;;;;;;;8.13;4.67;;;0.70;2201.60;;;;;;5033838;28;20104;-62
2022/01/12 00:23:48;;;;;;;11.50;5.20;;;0.70;2201.60;;;;;;5033986;28;20486;-67
2022/01/12 00:34:30;;;;;;;6.90;4.47;;;0.80;2201.60;;;;;;5033672;28;20068;-62
2022/01/12 00:36:56;;;;;;;7.27;4.60;;;0.80;2201.60;;;;;;5033807;28;20113;-67
2022/01/12 00:39:23;;;;;;;8.57;4.40;;;0.80;2201.60;;;;;;5033727;28;20104;-62
2022/01/12 00:41:50;;;;;;;9.60;5.20;;;0.80;2201.60;;;;;;5033749;28;20025;-67
2022/01/12 00:44:24;;;;;;;8.60;5.30;;;0.90;2201.60;;;;;;5033474;28;20029;-62
2022/01/12 00:46:52;;;;;;;11.53;4.30;;;0.80;2201.60;;;;;;5033928;28;20044;-63
2022/01/12 00:49:18;;;;;;;6.87;4.37;;;0.80;2201.60;;;;;;5033403;28;20056;-61
2022/01/12 00:51:44;;;;;;;9.57;5.27;;;0.80;2201.60;;;;;;5033618;28;20021;-62
2022/01/12 00:54:11;;;;;;;7.70;4.27;;;0.70;2201.60;;;;;;5033589;28;20474;-63
2022/01/12 00:56:36;;;;;;;6.90;4.10;;;0.70;2201.60;;;;;;5015765;28;20033;-67
2022/01/12 00:59:03;;;;;;;6.23;3.97;;;0.70;2201.60;;;;;;5033223;28;20025;-62
2022/01/12 01:01:29;;;;;;;8.40;4.27;;;0.70;2201.60;;;;;;5033814;28;20029;-66
2022/01/12 01:03:55;;;;;;;7.03;4.03;;;0.70;2201.60;;;;;;5033364;28;20026;-68
2022/01/12 01:06:22;;;;;;;6.47;3.93;;;0.80;2201.60;;;;;;5033331;28;20041;-67
2022/01/12 01:08:51;;;;;;;8.83;4.30;;;0.70;2201.60;;;;;;5033533;28;20096;-68
2022/01/12 01:11:18;;;;;;;8.60;4.70;;;0.60;2201.60;;;;;;5033768;28;20017;-62
2022/01/12 01:13:56;;;;;;;7.63;4.67;;;0.70;2201.60;;;;;;5033264;28;20022;-62
2022/01/12 01:16:46;;;;;;;7.03;4.40;;;0.70;2201.60;;;;;;5033862;28;20022;-62
2022/01/12 01:27:30;;;;;;;6.27;4.07;;;0.70;2201.60;;;;;;5033354;28;20044;-64
2022/01/12 01:29:56;;;;;;;7.53;4.23;;;0.80;2201.60;;;;;;5033029;28;20022;-61
2022/01/12 01:32:24;;;;;;;5.60;3.40;;;0.80;2201.60;;;;;;5033323;28;20017;-66
2022/01/12 01:34:50;;;;;;;8.90;4.60;;;0.80;2201.60;;;;;;5033135;28;20033;-64
2022/01/12 01:37:16;;;;;;;7.33;4.10;;;0.70;2201.60;;;;;;5033020;28;20148;-67
2022/01/12 01:39:43;;;;;;;7.13;4.10;;;0.70;2201.60;;;;;;5032974;28;20057;-62
2022/01/12 01:42:18;;;;;;;9.10;4.33;;;0.80;2201.60;;;;;;5033062;28;20029;-62
2022/01/12 01:55:30;;;;;;;9.00;4.33;;;0.60;2201.60;;;;;;5036810;28;20036;-67
2022/01/12 01:57:55;;;;;;;6.80;3.80;;;0.60;2201.60;;;;;;5036847;28;20434;-62
2022/01/12 02:00:23;;;;;;;5.77;3.73;;;0.50;2201.60;;;;;;5036649;28;20113;-62
2022/01/12 02:02:51;;;;;;;6.63;3.80;;;0.50;2201.60;;;;;;5036942;28;20160;-66
2022/01/12 02:05:17;;;;;;;6.27;4.17;;;0.50;2201.60;;;;;;5036452;28;20047;-67
2022/01/12 02:07:43;;;;;;;7.17;4.10;;;0.60;2201.60;;;;;;5036608;28;20029;-62
2022/01/12 02:10:09;;;;;;;7.13;4.10;;;0.60;2201.60;;;;;;5036395;28;20032;-61
2022/01/12 02:12:36;;;;;;;7.10;3.97;;;0.60;2201.60;;;;;;5036751;28;20021;-66
2022/01/12 02:15:11;;;;;;;8.23;4.33;;;0.60;2201.60;;;;;;5036267;28;20088;-62
2022/01/12 02:17:42;;;;;;;6.33;4.40;;;0.60;2201.60;;;;;;5036381;28;20112;-62
2022/01/12 02:35:14;;;;;;;6.57;3.70;;;0.60;2201.60;;;;;;5036214;28;20105;-67
2022/01/12 02:36:59;;;;;;;;;;;0.50;2201.60;;;;;;5036993;28;20171;-62
2022/01/12 02:42:10;;;;;;;6.57;3.70;;;0.40;2201.60;;;;;;5035976;28;20032;-66
2022/01/12 02:55:34;;;;;;;8.57;4.87;;;0.50;2201.60;;;;;;5035539;28;20497;-62
2022/01/12 02:57:59;;;;;;;9.63;4.73;;;0.50;2201.60;;;;;;5035589;28;20037;-63
2022/01/12 03:00:37;;;;;;;8.20;4.90;;;0.50;2201.60;;;;;;5035709;28;20029;-67
2022/01/12 03:03:04;;;;;;;7.67;4.50;;;0.50;2201.60;;;;;;5035443;28;20056;-62
2022/01/12 03:05:35;;;;;;;8.87;4.47;;;0.50;2201.60;;;;;;5035319;28;20120;-67
2022/01/12 03:08:10;;;;;;;9.47;5.57;;;0.50;2201.60;;;;;;5035425;28;20061;-63
2022/01/12 03:10:36;;;;;;;8.30;4.77;;;0.50;2201.60;;;;;;5035362;28;20461;-67
2022/01/12 03:13:02;;;;;;;7.63;4.83;;;0.40;2201.60;;;;;;5035417;28;20109;-62
2022/01/12 03:15:27;;;;;;;9.90;5.17;;;0.50;2201.60;;;;;;5035225;28;20029;-67
2022/01/12 03:17:53;;;;;;;13.03;6.63;;;0.50;2201.60;;;;;;5035453;28;20025;-67
2022/01/12 03:20:19;;;;;;;13.23;6.97;;;0.50;2201.60;;;;;;5035386;28;20502;-67
2022/01/12 03:22:45;;;;;;;10.70;5.93;;;0.50;2201.60;;;;;;5035012;28;20073;-62
2022/01/12 03:25:11;;;;;;;12.37;6.73;;;0.40;2201.60;;;;;;5034969;28;20037;-62
2022/01/12 03:27:38;;;;;;;9.50;5.37;;;0.40;2201.60;;;;;;5034996;28;20521;-68
2022/01/12 03:30:05;;;;;;;13.70;7.47;;;0.40;2201.60;;;;;;5034211;28;20060;-67
2022/01/12 03:32:44;;;;;;;12.20;6.47;;;0.40;2201.60;;;;;;5034373;28;20022;-67
2022/01/12 03:35:23;;;;;;;14.03;6.90;;;0.50;2201.60;;;;;;5035072;28;20029;-64
2022/01/12 03:40:34;;;;;;;10.20;5.70;;;0.50;2201.60;;;;;;5035087;28;20064;-67
2022/01/12 03:42:59;;;;;;;9.60;6.20;;;0.50;2201.60;;;;;;5034751;28;20056;-66
2022/01/12 03:45:25;;;;;;;11.63;5.97;;;0.50;2201.60;;;;;;5034844;28;20041;-62
2022/01/12 03:47:51;;;;;;;12.37;6.57;;;0.50;2201.60;;;;;;5034666;28;20112;-65
2022/01/12 03:50:17;;;;;;;9.63;6.07;;;0.50;2201.60;;;;;;5034936;28;20113;-67
2022/01/12 03:52:43;;;;;;;11.40;6.53;;;0.50;2201.60;;;;;;5034841;28;20454;-67
2022/01/12 03:55:09;;;;;;;11.20;6.67;;;0.50;2201.60;;;;;;5034604;28;20056;-67
2022/01/12 03:57:35;;;;;;;11.90;7.07;;;0.50;2201.60;;;;;;5034532;28;20025;-68
2022/01/12 04:00:00;;;;;;;10.27;6.57;;;0.50;2201.60;;;;;;5034779;28;20360;-63
2022/01/12 04:02:27;;;;;;;12.80;7.13;;;0.50;2201.60;;;;;;5034241;28;20075;-68
2022/01/12 04:05:23;;;;;;;11.63;7.53;;;0.50;2201.60;;;;;;5034219;28;20091;-67
2022/01/12 04:10:34;;;;;;;15.10;8.87;;;0.50;2201.60;;;;;;5034482;28;20430;-67
2022/01/12 04:13:00;;;;;;;14.70;8.50;;;0.40;2201.60;;;;;;5034170;28;20037;-63
2022/01/12 04:15:27;;;;;;;16.87;9.53;;;0.30;2201.60;;;;;;5034256;28;20018;-68
2022/01/12 04:17:53;;;;;;;15.23;9.30;;;0.30;2201.60;;;;;;5034080;28;20068;-67
2022/01/12 04:20:19;;;;;;;18.50;10.20;;;0.20;2201.60;;;;;;5033957;28;20025;-68
2022/01/12 04:25:29;;;;;;;19.97;10.87;;;0.00;2201.60;;;;;;5033996;28;20044;-62
2022/01/12 04:27:55;;;;;;;21.57;11.57;;;12.90;2201.60;;;;;;5033974;28;20076;-62
2022/01/12 04:30:21;;;;;;;23.07;12.50;;;12.90;2201.60;;;;;;5033809;28;20026;-62
2022/01/12 04:32:48;;;;;;;26.67;13.40;;;13.00;2201.60;;;;;;5033870;28;20083;-68
2022/01/12 04:35:15;;;;;;;26.53;13.33;;;13.10;2201.60;;;;;;5033811;28;20032;-63
2022/01/12 04:37:41;;;;;;;20.77;12.00;;;13.20;2201.60;;;;;;5034246;28;20481;-68
2022/01/12 04:40:08;;;;;;;25.00;12.97;;;;;;;;;;5033721;28;20159;-68
2022/01/12 04:42:35;;;;;;;29.20;14.70;;;13.20;2201.60;;;;;;5016012;28;20041;-68
2022/01/12 04:45:16;;;;;;;25.90;13.30;;;13.30;2201.60;;;;;;5033638;28;20112;-66
2022/01/12 04:50:24;;;;;;;23.03;13.13;;;13.30;2201.60;;;;;;5033595;28;20036;-64
2022/01/12 04:52:51;;;;;;;27.00;12.90;;;13.40;2201.60;;;;;;5033877;28;20467;-63
2022/01/12 04:55:17;;;;;;;21.40;13.00;;;13.40;2201.60;;;;;;5033850;28;20022;-68
2022/01/12 04:57:43;;;;;;;21.67;12.87;;;13.50;2201.60;;;;;;5033480;28;20040;-67
2022/01/12 05:00:15;;;;;;;19.93;11.57;;;13.50;2201.60;;;;;;5033249;28;20053;-67
2022/01/12 05:08:23;;;;;;;26.37;14.00;;;13.70;2201.60;;;;;;5033460;28;20036;-67
2022/01/12 05:13:36;;;;;;;25.93;14.70;;;13.70;2201.60;;;;;;5033919;28;20080;-67
2022/01/12 05:16:02;;;;;;;23.53;13.97;;;13.70;2201.60;;;;;;5033239;28;20036;-62
2022/01/12 05:18:29;;;;;;;22.77;13.03;;;38.40;2201.60;;;;;;5034041;28;20021;-67
2022/01/12 05:20:55;;;;;;;25.67;14.33;;;38.40;2201.60;;;;;;5037166;28;20025;-68
2022/01/12 05:23:21;;;;;;;25.47;14.27;;;38.40;2201.60;;;;;;5037709;28;20044;-68
2022/01/12 05:25:47;;;;;;;25.67;13.77;;;38.40;2201.60;;;;;;5037259;28;20034;-67
2022/01/12 05:28:14;;;;;;;25.07;13.93;;;38.40;2201.60;;;;;;5037574;28;20022;-68
2022/01/12 05:30:40;;;;;;;27.77;14.13;;;38.40;2201.60;;;;;;5037620;28;20033;-63
2022/01/12 05:33:06;;;;;;;25.73;13.67;;;38.50;2201.60;;;;;;5037194;28;20534;-68
2022/01/12 05:35:33;;;;;;;26.60;14.57;;;38.50;2201.60;;;;;;5037007;28;20040;-68
2022/01/12 05:38:02;;;;;;;27.93;14.93;;;38.50;2201.60;;;;;;5037182;28;20053;-68
2022/01/12 05:40:28;;;;;;;28.80;15.47;;;38.50;2201.60;;;;;;5037086;28;20022;-68
2022/01/12 05:42:56;;;;;;;30.70;15.57;;;38.50;2201.60;;;;;;5037552;28;20079;-66
2022/01/12 05:45:22;;;;;;;32.10;15.37;;;38.50;2201.60;;;;;;5037038;28;20025;-67
2022/01/12 05:50:18;;;;;;;32.67;16.87;;;38.50;2201.60;;;;;;5037295;28;20462;-68
2022/01/12 05:52:44;;;;;;;29.60;15.20;;;38.60;2201.60;;;;;;5036878;28;20033;-67
2022/01/12 05:55:11;;;;;;;31.70;16.43;;;38.60;2201.60;;;;;;5036822;28;20034;-68
2022/01/12 05:57:37;;;;;;;34.50;17.73;;;38.70;2201.60;;;;;;5036718;28;20049;-67
2022/01/12 06:00:06;;;;;;;39.10;18.60;;;38.70;2201.60;;;;;;5036732;28;20029;-67
2022/01/12 06:02:32;;;;;;;35.77;17.87;;;38.70;2201.60;;;;;;5036281;28;20036;-62
2022/01/12 06:04:58;;;;;;;36.53;17.93;;;38.70;2201.60;;;;;;5036537;28;20377;-67
2022/01/12 06:07:24;;;;;;;37.93;18.53;;;38.70;2201.60;;;;;;5036834;28;20017;-67
2022/01/12 06:09:50;;;;;;;35.47;17.63;;;38.70;2201.60;;;;;;5036477;28;20087;-64
2022/01/12 06:12:16;;;;;;;36.57;18.10;;;38.80;2201.60;;;;;;5036479;28;20033;-68
2022/01/12 06:14:42;;;;;;;39.70;19.40;;;38.80;2201.60;;;;;;5036429;28;20048;-63
2022/01/12 06:17:09;;;;;;;37.90;19.17;;;38.80;2201.60;;;;;;5036317;28;20471;-67
2022/01/12 06:19:35;;;;;;;41.23;18.90;;;38.80;2201.60;;;;;;5036363;28;20026;-62
2022/01/12 06:22:01;;;;;;;42.67;18.87;;;38.80;2201.60;;;;;;5035957;28;20119;-67
2022/01/12 06:24:28;;;;;;;41.97;20.20;;;38.80;2201.60;;;;;;5036341;28;20029;-62
2022/01/12 06:26:55;;;;;;;41.17;19.70;;;38.80;2201.60;;;;;;5036310;28;20570;-68
2022/01/12 06:31:56;;;;;;;57.57;28.73;;;38.90;2201.60;;;;;;5036113;28;20497;-67
2022/01/12 06:34:22;;;;;;;81.97;37.23;;;38.90;2201.60;;;;;;5036112;28;20520;-67
2022/01/12 06:36:48;;;;;;;111.20;53.20;;;38.90;2201.60;;;;;;5036027;28;20024;-68
2022/01/12 06:39:17;;;;;;;156.00;79.47;;;39.00;2201.60;;;;;;5036011;28;20029;-62
2022/01/12 06:41:44;;;;;;;231.90;96.37;;;39.00;2201.60;;;;;;5035846;28;20021;-61
2022/01/12 06:44:14;;;;;;;276.03;111.97;;;39.00;2201.60;;;;;;5035824;28;20033;-61
2022/01/12 06:46:40;;;;;;;194.10;80.17;;;39.00;2201.60;;;;;;5036326;28;20477;-62
2022/01/12 06:49:06;;;;;;;213.43;87.70;;;39.10;2201.60;;;;;;5036074;28;20059;-62
2022/01/12 06:51:32;;;;;;;237.07;85.70;;;39.10;2201.60;;;;;;5035717;28;20033;-62
2022/01/12 06:53:58;;;;;;;269.07;99.47;;;39.10;2201.60;;;;;;5035662;28;20018;-62
2022/01/12 06:56:24;;;;;;;199.83;87.30;;;39.10;2201.60;;;;;;5035675;28;20018;-66
2022/01/12 06:58:50;;;;;;;193.70;88.13;;;39.20;2201.60;;;;;;5036135;28;20025;-62
2022/01/12 07:01:15;;;;;;;188.33;99.23;;;39.20;2201.60;;;;;;5036107;28;20037;-62
2022/01/12 07:03:41;;;;;;;131.83;74.67;;;39.20;2201.60;;;;;;5035561;28;20029;-62
2022/01/12 07:06:07;;;;;;;117.10;48.57;;;39.20;2201.60;;;;;;5035377;28;20041;-65
2022/01/12 07:08:34;;;;;;;697.30;384.73;;;39.20;2201.60;;;;;;5035476;28;20021;-63
2022/01/12 07:11:00;;;;;;;370.80;181.87;;;39.20;2201.60;;;;;;5035280;28;20025;-67
2022/01/12 07:13:26;;;;;;;127.27;69.33;;;39.20;2201.60;;;;;;5035090;28;20505;-67
2022/01/12 07:15:52;;;;;;;112.47;59.67;;;39.20;2201.60;;;;;;5035183;28;20025;-63
2022/01/12 07:18:21;;;;;;;130.10;75.63;;;39.10;2201.60;;;;;;5035243;28;20026;-66
2022/01/12 07:20:48;;;;;;;57.60;32.27;;;39.10;2201.60;;;;;;5035062;28;20044;-68
2022/01/12 07:23:14;;;;;;;42.17;23.37;;;39.10;2201.60;;;;;;5034415;28;20040;-62
2022/01/12 07:25:40;;;;;;;53.80;33.17;;;39.00;2201.60;;;;;;5034956;28;20044;-61
2022/01/12 07:28:06;;;;;;;44.37;24.40;;;39.00;2201.60;;;;;;5035027;28;20374;-62
2022/01/12 07:30:32;;;;;;;50.40;30.20;;;38.90;2201.60;;;;;;5034676;28;20029;-62
2022/01/12 07:32:58;;;;;;;50.00;27.53;;;38.80;2201.60;;;;;;5034524;28;20030;-62
2022/01/12 07:35:24;;;;;;;58.80;31.03;;;38.80;2201.60;;;;;;5035431;28;20021;-61
2022/01/12 07:37:50;;;;;;;67.70;32.87;;;38.80;2201.60;;;;;;5034096;28;20111;-62
2022/01/12 07:40:16;;;;;;;80.33;34.70;;;38.80;2201.60;;;;;;5016272;28;20029;-66
2022/01/12 07:42:43;;;;;;;65.07;28.63;;;38.70;2201.60;;;;;;5032936;28;20025;-62
2022/01/12 07:45:09;;;;;;;56.43;27.37;;;38.60;2201.60;;;;;;5034291;28;20061;-62
2022/01/12 07:47:35;;;;;;;61.27;30.03;;;38.60;2201.60;;;;;;5034584;28;20100;-62
2022/01/12 07:50:03;;;;;;;53.10;27.17;;;38.60;2201.60;;;;;;5034684;28;20025;-62
2022/01/12 07:52:30;;;;;;;59.33;28.03;;;38.60;2201.60;;;;;;5034577;28;20100;-62
2022/01/12 07:54:57;;;;;;;52.10;23.77;;;38.50;2201.60;;;;;;5034538;28;20056;-62
2022/01/12 07:57:23;;;;;;;38.00;18.50;;;38.50;2201.60;;;;;;5034731;28;20367;-62
2022/01/12 07:59:48;;;;;;;46.07;23.27;;;38.40;2201.60;;;;;;5033307;28;20022;-68
2022/01/12 08:02:14;;;;;;;36.93;17.80;;;38.40;2201.60;;;;;;5032578;28;20025;-67
2022/01/12 08:04:40;;;;;;;33.57;17.13;;;38.40;2201.60;;;;;;5033903;28;20025;-67
2022/01/12 08:07:10;;;;;;;34.60;17.57;;;38.40;2201.60;;;;;;5033950;28;20386;-68
2022/01/12 08:09:39;;;;;;;39.80;20.27;;;38.40;2201.60;;;;;;5033659;28;20021;-67
2022/01/12 08:12:05;;;;;;;73.97;35.70;;;38.40;2201.60;;;;;;5033388;28;20021;-66
2022/01/12 08:14:31;;;;;;;100.07;47.23;;;38.40;2201.60;;;;;;5033961;28;20366;-67
2022/01/12 08:16:57;;;;;;;114.20;47.53;;;13.70;2201.60;;;;;;5033931;28;20025;-68
2022/01/12 08:19:24;;;;;;;162.57;69.23;;;13.70;2201.60;;;;;;5032039;28;20029;-62
2022/01/12 08:21:50;;;;;;;108.60;50.43;;;13.60;2201.60;;;;;;5032155;28;20100;-66
2022/01/12 08:24:16;;;;;;;98.40;43.73;;;13.50;2201.60;;;;;;5032228;28;20025;-68
2022/01/12 08:26:43;;;;;;;82.80;39.13;;;13.50;2201.60;;;;;;5015065;28;20033;-68
2022/01/12 08:29:13;;;;;;;77.50;38.20;;;13.50;2201.60;;;;;;5033235;28;20028;-61
2022/01/12 08:31:39;;;;;;;111.73;46.33;;;13.50;2201.60;;;;;;5032192;28;20057;-64
2022/01/12 08:34:05;;;;;;;62.90;29.87;;;13.40;2201.60;;;;;;5031947;28;20052;-68
2022/01/12 08:36:30;;;;;;;62.40;29.07;;;13.40;2201.60;;;;;;5032434;28;20418;-67
2022/01/12 08:38:57;;;;;;;39.97;20.33;;;13.40;2201.60;;;;;;5033613;28;20466;-68
2022/01/12 08:41:24;;;;;;;43.60;21.97;;;13.30;2201.60;;;;;;5032913;28;20079;-68
2022/01/12 08:43:50;;;;;;;51.03;23.63;;;13.30;2201.60;;;;;;5029388;28;20655;-61
2022/01/12 08:46:15;;;;;;;59.90;26.53;;;13.20;2201.60;;;;;;5031791;28;20060;-61
2022/01/12 08:48:41;;;;;;;75.27;31.90;;;13.20;2201.60;;;;;;5031670;28;20021;-67
2022/01/12 08:51:07;;;;;;;50.77;25.63;;;13.10;2201.60;;;;;;5031704;28;20033;-68
2022/01/12 08:53:34;;;;;;;42.40;20.70;;;13.10;2201.60;;;;;;5031793;28;20032;-68
2022/01/12 08:56:00;;;;;;;38.80;20.37;;;13.00;2201.60;;;;;;5032779;28;20048;-66
2022/01/12 08:58:26;;;;;;;44.80;20.90;;;13.00;2201.60;;;;;;5032116;28;20021;-68
2022/01/12 09:00:52;;;;;;;45.47;23.23;;;12.90;2201.60;;;;;;5031774;28;20505;-67
2022/01/12 09:03:18;;;;;;;45.50;22.33;;;0.00;2201.60;;;;;;5031232;28;20017;-67
2022/01/12 09:05:44;;;;;;;68.47;32.33;;;0.00;2201.60;;;;;;5031066;28;20057;-64
2022/01/12 09:08:10;;;;;;;58.20;28.37;;;0.20;2201.60;;;;;;5032560;28;20056;-68
2022/01/12 09:10:36;;;;;;;57.97;28.17;;;0.20;2201.60;;;;;;5032840;28;20029;-66
2022/01/12 09:13:02;;;;;;;48.07;23.77;;;0.50;2201.60;;;;;;5032998;28;20017;-61
2022/01/12 09:15:28;;;;;;;40.50;22.63;;;0.70;2201.60;;;;;;5033037;28;20383;-68
2022/01/12 09:17:56;;;;;;;41.50;21.70;;;0.90;2201.60;;;;;;5032774;28;20025;-67
2022/01/12 09:20:23;;;;;;;44.47;23.27;;;25.70;2201.60;;;;;;5031920;28;20025;-61
2022/01/12 09:22:50;;;;;;;44.53;22.03;;;25.90;2201.60;;;;;;5014620;28;20514;-68
2022/01/12 09:25:17;;;;;;;49.93;24.93;;;26.00;2201.60;;;;;;5032341;28;20048;-67
2022/01/12 09:27:43;;;;;;;58.27;28.00;;;26.10;2201.60;;;;;;5032750;28;20079;-68
2022/01/12 09:30:11;;;;;;;50.50;26.13;;;26.10;2201.60;;;;;;5032777;28;20460;-68
2022/01/12 09:32:37;;;;;;;56.33;26.33;;;26.10;2201.60;;;;;;5032352;28;20025;-68
2022/01/12 09:35:04;;;;;;;56.90;23.73;;;26.20;2201.60;;;;;;5032604;28;20028;-68
2022/01/12 09:37:30;;;;;;;159.77;51.33;;;26.30;2201.60;;;;;;5032376;28;20052;-66
2022/01/12 09:39:56;;;;;;;81.60;30.10;;;51.30;2201.60;;;;;;5032276;28;20065;-68
2022/01/12 09:42:22;;;;;;;66.83;31.77;;;51.70;2099.20;;;;;;5031370;28;20036;-61
2022/01/12 09:44:48;;;;;;;87.27;30.97;;;77.60;1945.60;;;;;;5031121;28;20017;-62
2022/01/12 09:47:15;;;;;;;56.33;24.30;;;103.20;1792.00;;;;;;5031182;28;20394;-68
2022/01/12 09:49:43;;;;;;;89.20;33.63;;;128.20;1740.80;;;;;;5046688;28;20032;-66
2022/01/12 09:52:09;;;;;;;80.40;29.93;;;180.00;1561.60;;;;;;5052455;28;20057;-68
2022/01/12 09:54:36;;;;;;;97.43;42.80;;;179.40;1536.00;;;;;;5048109;28;20091;-61
2022/01/12 09:57:03;;;;;;;80.57;35.27;;;154.30;1587.20;;;;;;5049409;28;20056;-68
2022/01/12 09:59:29;;;;;;;75.70;34.27;;;154.20;1612.80;;;;;;5041207;28;20043;-68
2022/01/12 10:01:56;;;;;;;59.50;26.20;;;179.20;1561.60;;;;;;5014271;28;20026;-68
2022/01/12 10:04:25;;;;;;;61.47;28.20;;;154.30;1536.00;;;;;;5032666;28;20091;-68
2022/01/12 10:06:54;;;;;;;68.90;35.03;;;154.20;1561.60;;;;;;5036058;28;20116;-67
2022/01/12 10:09:25;;;;;;;54.77;26.67;;;179.50;1536.00;;;;;;5035701;28;20032;-68
2022/01/12 10:11:56;;;;;;;58.83;26.67;;;231.30;1305.60;;;;;;5035953;28;20026;-69
2022/01/12 10:14:23;;;;;;;81.40;34.00;;;282.10;1203.20;;;;;;5036001;28;20429;-69
2022/01/12 10:16:57;;;;;;;85.27;42.17;;;307.80;1177.60;;;;;;5036062;28;20512;-65
2022/01/12 10:19:32;;;;;;;45.20;28.57;;;333.30;1100.80;;;;;;5035264;28;20109;-67
2022/01/12 10:22:00;;;;;;;39.35;23.23;;;358.90;1024.00;;;;;;5035175;28;20103;-66
2022/01/12 10:24:27;;;;;;;51.20;29.17;;;359.10;1024.00;;;;;;5035581;28;20060;-66
2022/01/12 10:26:55;;;;;;;34.42;21.85;;;384.40;947.20;;;;;;5035878;28;20033;-66
2022/01/12 10:29:28;;;;;;;47.80;27.00;;;384.20;947.20;;;;;;5035645;28;20478;-66
2022/01/12 10:32:05;;;;;;;34.40;22.55;;;410.40;921.60;;;;;;5035190;28;20040;-66
2022/01/12 10:34:40;;;;;;;88.22;49.17;;;384.20;947.20;;;;;;5035054;28;20033;-60
2022/01/12 10:37:26;;;;;;;79.57;42.10;;;384.20;972.80;;;;;;5034309;28;20147;-67
2022/01/12 10:39:54;;;;;;;47.60;27.23;;;410.40;921.60;;;;;;5031907;28;20067;-66
2022/01/12 10:42:23;;;;;;;99.70;44.95;;;359.10;947.20;;;;;;5035051;28;20049;-66
2022/01/12 10:44:56;;;;;;;72.85;35.92;;;409.60;947.20;;;;;;5034206;28;20021;-66
2022/01/12 10:47:24;;;;;;;56.45;29.88;;;384.10;921.60;;;;;;5034123;28;20486;-66
2022/01/12 10:49:58;;;;;;;43.90;25.02;;;;;;;;;;5035355;28;20037;-62
2022/01/12 10:52:32;;;;;;;40.15;22.58;;;333.00;1152.00;;;;;;5035090;28;20497;-67
2022/01/12 10:55:24;;;;;;;58.97;30.20;;;307.70;1715.20;;;;;;5031760;28;20021;-67
2022/01/12 10:57:52;;;;;;;33.25;21.20;;;358.50;1024.00;;;;;;5030460;28;20586;-66
2022/01/12 11:00:20;;;;;;;50.42;27.77;;;;;;;;;;5034810;28;20040;-65
2022/01/12 11:02:53;;;;;;;48.15;23.65;;;281.80;1152.00;;;;;;5017408;28;20489;-66
2022/01/12 11:05:24;;;;;;;38.65;23.33;;;282.50;1100.80;;;;;;5034372;28;20033;-65
2022/01/12 11:07:51;;;;;;;94.72;38.58;;;359.00;947.20;;;;;;5033805;28;20025;-60
2022/01/12 11:10:19;;;;;;;38.78;23.45;;;409.90;896.00;;;;;;5033725;28;20486;-61
2022/01/12 11:12:46;;;;;;;40.50;23.45;;;333.50;998.40;;;;;;5015960;28;20024;-67
2022/01/12 11:15:14;;;;;;;30.42;19.83;;;282.20;1100.80;;;;;;5033459;28;20079;-61
2022/01/12 11:17:42;;;;;;;38.90;22.35;;;256.00;1203.20;;;;;;5033575;28;20025;-67
2022/01/12 11:20:28;;;;;;;70.78;32.47;;;230.50;1280.00;;;;;;5030736;28;20056;-66
2022/01/12 11:23:12;;;;;;;65.00;33.35;;;205.50;1331.20;;;;;;5031386;28;20067;-67
2022/01/12 11:25:50;;;;;;;71.90;35.00;;;180.00;1382.40;;;;;;5031748;28;20046;-62
2022/01/12 11:28:35;;;;;;;54.58;31.38;;;179.70;1433.60;;;;;;5033512;28;20470;-68
2022/01/12 11:31:02;;;;;;;43.28;25.17;;;179.40;1459.20;;;;;;5032167;28;20087;-63
2022/01/12 11:33:31;;;;;;;42.38;22.95;;;179.20;1920.00;;;;;;5033851;28;20033;-66
2022/01/12 11:36:04;;;;;;;51.85;27.13;;;154.30;1561.60;;;;;;5017025;28;20532;-69
2022/01/12 11:38:35;;;;;;;48.25;25.65;;;153.90;1536.00;;;;;;5035085;28;20021;-61
2022/01/12 11:41:12;;;;;;;117.35;68.75;;;128.90;1561.60;;;;;;5034450;28;20030;-62
2022/01/12 11:43:57;;;;;;;71.25;40.78;;;128.60;1587.20;;;;;;5034677;28;20040;-61
2022/01/12 11:46:28;;;;;;;49.07;29.67;;;128.50;1587.20;;;;;;5034903;28;20103;-63
2022/01/12 11:48:59;;;;;;;42.50;22.70;;;128.60;1612.80;;;;;;5034633;28;20348;-66
2022/01/12 11:51:34;;;;;;;39.53;23.97;;;128.60;1638.40;;;;;;5033502;28;20551;-68
2022/01/12 11:54:08;;;;;;;50.13;28.23;;;128.50;1638.40;;;;;;5034417;28;20021;-61
2022/01/12 11:56:34;;;;;;;38.53;23.55;;;128.60;1612.80;;;;;;5034527;28;20056;-61
2022/01/12 11:59:06;;;;;;;41.07;24.70;;;128.30;1612.80;;;;;;5033224;28;20033;-61
2022/01/12 12:01:37;;;;;;;44.30;25.90;;;128.30;1638.40;;;;;;5032871;28;20490;-62
2022/01/12 12:04:04;;;;;;;38.27;22.43;;;128.20;1664.00;;;;;;5030492;28;20036;-61
2022/01/12 12:06:30;;;;;;;33.97;19.87;;;128.20;1664.00;;;;;;5032819;28;20398;-61
2022/01/12 12:09:03;;;;;;;41.47;22.63;;;128.50;1638.40;;;;;;5033416;28;20026;-61
2022/01/12 12:11:30;;;;;;;38.20;22.63;;;154.20;1536.00;;;;;;5034397;28;20048;-64
2022/01/12 12:14:00;;;;;;;45.37;26.47;;;204.80;1971.20;;;;;;5034064;28;20025;-61
2022/01/12 12:16:27;;;;;;;35.40;23.47;;;179.50;1459.20;;;;;;5034197;28;20026;-61
2022/01/12 12:18:54;;;;;;;43.40;25.63;;;180.00;2124.80;;;;;;5033584;28;20074;-61
2022/01/12 12:21:20;;;;;;;46.73;26.60;;;154.40;1510.40;;;;;;5033752;28;20042;-61
2022/01/12 12:23:47;;;;;;;342.07;189.70;;;179.80;1484.80;;;;;;5033998;28;20026;-62
2022/01/12 12:26:18;;;;;;;193.10;105.70;;;179.60;1459.20;;;;;;5033858;28;20030;-61
2022/01/12 12:28:53;;;;;;;473.35;272.40;;;204.80;1459.20;;;;;;5033913;28;20348;-61
2022/01/12 12:31:26;;;;;;;129.93;73.35;;;179.70;1459.20;;;;;;5033835;28;20029;-61
2022/01/12 12:34:06;;;;;;;362.30;190.47;;;179.40;1484.80;;;;;;5033909;28;20112;-61
2022/01/12 12:36:32;;;;;;;206.20;101.90;;;204.80;1459.20;;;;;;5033652;28;20270;-61
2022/01/12 12:39:11;;;;;;;146.43;72.10;;;180.10;1408.00;;;;;;5033758;28;20103;-61
2022/01/12 12:41:44;;;;;;;291.50;146.20;;;179.90;1433.60;;;;;;5033636;28;20056;-60
2022/01/12 12:44:32;;;;;;;44.97;26.25;;;231.00;1305.60;;;;;;5033652;28;20029;-61
2022/01/12 12:47:16;;;;;;;107.47;56.33;;;282.20;1177.60;;;;;;5033824;28;20502;-62
2022/01/12 12:49:51;;;;;;;87.35;45.03;;;358.40;1075.20;;;;;;5033692;28;20569;-62
2022/01/12 12:52:43;;;;;;;98.68;53.85;;;359.30;998.40;;;;;;5030482;28;20109;-62
2022/01/12 12:55:15;;;;;;;100.40;50.30;;;384.40;947.20;;;;;;5033034;28;20124;-62
2022/01/12 12:57:53;;;;;;;82.63;48.53;;;359.10;998.40;;;;;;5033730;28;20040;-61
2022/01/12 13:00:22;;;;;;;81.07;48.30;;;410.20;870.40;;;;;;5033706;28;20035;-61
2022/01/12 13:02:50;;;;;;;65.10;43.58;;;460.90;819.20;;;;;;5033153;28;20542;-61
2022/01/12 13:05:19;;;;;;;46.67;31.00;;;486.40;819.20;;;;;;5033333;28;20057;-65
2022/01/12 13:07:47;;;;;;;33.25;22.02;;;461.60;819.20;;;;;;5032279;28;20879;-64
2022/01/12 13:10:15;;;;;;;49.03;28.38;;;;;;;;;;5032941;28;20057;-61
2022/01/12 13:12:43;;;;;;;45.95;28.33;;;435.50;819.20;;;;;;5029475;28;20029;-61
2022/01/12 13:15:13;;;;;;;48.15;27.95;;;;;;;;;;5029950;28;20428;-67
2022/01/12 13:17:39;;;;;;;71.82;40.35;;;384.50;1305.60;;;;;;5022094;28;20026;-65
2022/01/12 13:22:46;;;;;;;54.97;35.20;;;435.40;844.80;;;;;;5028840;28;20053;-66
2022/01/12 13:25:15;;;;;;;94.25;52.75;;;512.00;742.40;;;;;;5014702;28;20058;-68
2022/01/12 13:27:43;;;;;;;59.65;39.90;;;588.90;716.80;;;;;;5026395;28;20052;-64
2022/01/12 13:30:22;;;;;;;109.53;71.32;;;640.00;588.80;;;;;;5017034;28;20168;-68
2022/01/12 13:32:56;;;;;;;49.83;31.67;;;640.90;588.80;;;;;;5024058;28;20025;-67
2022/01/12 13:35:28;;;;;;;44.17;26.50;;;640.50;563.20;;;;;;5015420;28;20475;-61
2022/01/12 13:37:57;;;;;;;50.47;32.42;;;640.70;563.20;;;;;;5011345;28;20022;-68
2022/01/12 13:40:23;;;;;;;55.65;41.67;;;666.30;588.80;;;;;;5004474;28;20352;-68
2022/01/12 13:42:57;;;;;;;46.55;31.45;;;640.10;588.80;;;;;;5007839;28;20018;-61